createdAt,value
2023-05-09T00:02:00.074Z,6.05
2023-05-09T00:04:26.912Z,6.38
2023-05-09T00:06:53.624Z,6.68
2023-05-09T00:09:20.409Z,6.53
2023-05-09T00:11:48.218Z,6.60
2023-05-09T00:14:15.041Z,6.38
2023-05-09T00:16:45.007Z,6.25
2023-05-09T00:19:13.152Z,6.72
2023-05-09T00:21:42.403Z,6.47
2023-05-09T00:24:09.128Z,6.60
2023-05-09T00:26:36.545Z,6.80
2023-05-09T00:29:03.272Z,6.13
2023-05-09T00:31:29.945Z,6.72
2023-05-09T00:33:56.569Z,6.90
2023-05-09T00:36:26.176Z,6.50
2023-05-09T00:38:53.661Z,7.00
2023-05-09T00:41:21.530Z,6.60
2023-05-09T00:44:07.075Z,6.80
2023-05-09T00:46:34.002Z,6.13
2023-05-09T00:49:19.556Z,6.72
2023-05-09T00:51:47.544Z,6.35
2023-05-09T00:54:14.582Z,6.25
2023-05-09T00:56:41.664Z,7.10
2023-05-09T00:59:08.363Z,7.00
2023-05-09T01:01:37.091Z,7.00
2023-05-09T01:04:04.078Z,6.97
2023-05-09T01:06:32.903Z,6.50
2023-05-09T01:09:07.939Z,6.88
2023-05-09T01:12:03.209Z,7.05
2023-05-09T01:15:02.743Z,6.80
2023-05-09T01:17:59.036Z,7.38
2023-05-09T01:21:03.887Z,7.07
2023-05-09T01:24:08.585Z,7.32
2023-05-09T01:27:01.844Z,7.07
2023-05-09T01:29:37.516Z,6.95
2023-05-09T01:32:28.134Z,7.23
2023-05-09T01:34:59.490Z,7.32
2023-05-09T01:37:33.901Z,7.28
2023-05-09T01:40:08.413Z,6.57
2023-05-09T01:42:43.742Z,7.00
2023-05-09T01:45:12.731Z,7.25
2023-05-09T01:47:42.626Z,7.20
2023-05-09T01:50:11.763Z,7.50
2023-05-09T01:52:42.684Z,7.70
2023-05-09T01:55:10.926Z,7.75
2023-05-09T01:57:41.003Z,8.02
2023-05-09T02:00:10.299Z,7.38
2023-05-09T02:02:38.829Z,7.43
2023-05-09T02:05:06.656Z,7.95
2023-05-09T02:07:33.902Z,7.47
2023-05-09T02:10:02.467Z,7.65
2023-05-09T02:12:31.427Z,8.30
2023-05-09T02:14:58.140Z,7.20
2023-05-09T02:17:43.809Z,7.28
2023-05-09T02:20:11.761Z,7.55
2023-05-09T02:22:41.382Z,7.55
2023-05-09T02:25:09.346Z,8.63
2023-05-09T02:27:56.057Z,7.60
2023-05-09T02:30:26.220Z,7.82
2023-05-09T02:33:01.394Z,7.88
2023-05-09T02:35:29.166Z,7.90
2023-05-09T02:38:14.620Z,7.95
2023-05-09T02:40:44.487Z,7.45
2023-05-09T02:43:29.738Z,7.70
2023-05-09T02:45:56.512Z,7.68
2023-05-09T02:48:23.435Z,8.00
2023-05-09T02:50:50.164Z,7.68
2023-05-09T02:53:16.769Z,8.00
2023-05-09T02:55:43.556Z,7.57
2023-05-09T02:58:15.104Z,8.23
2023-05-09T03:00:42.635Z,7.80
2023-05-09T03:03:09.573Z,8.25
2023-05-09T03:05:55.182Z,7.82
2023-05-09T03:08:21.819Z,8.00
2023-05-09T03:10:48.473Z,7.90
2023-05-09T03:13:15.253Z,7.78
2023-05-09T03:15:45.272Z,7.97
2023-05-09T03:18:12.538Z,8.15
2023-05-09T03:20:39.248Z,8.25
2023-05-09T03:23:07.841Z,8.52
2023-05-09T03:25:34.677Z,8.07
2023-05-09T03:28:01.590Z,7.93
2023-05-09T03:30:28.322Z,8.23
2023-05-09T03:32:55.884Z,8.15
2023-05-09T03:35:28.808Z,8.40
2023-05-09T03:37:55.436Z,7.90
2023-05-09T03:40:22.146Z,7.70
2023-05-09T03:43:07.627Z,9.02
2023-05-09T03:45:36.206Z,8.80
2023-05-09T03:48:05.417Z,8.95
2023-05-09T03:50:34.434Z,9.02
2023-05-09T03:53:01.276Z,8.25
2023-05-09T03:55:30.578Z,8.82
2023-05-09T03:57:57.621Z,8.68
2023-05-09T04:00:26.862Z,9.40
2023-05-09T04:02:53.741Z,8.65
2023-05-09T04:05:21.512Z,9.32
2023-05-09T04:07:48.244Z,8.93
2023-05-09T04:10:15.518Z,8.60
2023-05-09T04:12:44.896Z,8.82
2023-05-09T04:15:15.415Z,9.30
2023-05-09T04:17:42.935Z,9.75
2023-05-09T04:20:10.909Z,9.63
2023-05-09T04:22:37.709Z,9.02
2023-05-09T04:25:06.605Z,8.55
2023-05-09T04:27:33.867Z,9.23
2023-05-09T04:30:00.525Z,8.88
2023-05-09T04:32:28.088Z,8.68
2023-05-09T04:34:54.772Z,9.50
2023-05-09T04:37:22.168Z,8.98
2023-05-09T04:40:10.493Z,9.15
2023-05-09T04:42:37.660Z,8.70
2023-05-09T04:45:05.641Z,9.25
2023-05-09T04:47:50.956Z,9.05
2023-05-09T04:50:17.690Z,9.35
2023-05-09T04:52:44.502Z,8.57
2023-05-09T04:55:11.421Z,9.43
2023-05-09T04:57:38.164Z,9.13
2023-05-09T05:00:08.028Z,9.73
2023-05-09T05:02:34.949Z,9.20
2023-05-09T05:05:21.784Z,9.95
2023-05-09T05:07:50.533Z,8.75
2023-05-09T05:10:17.240Z,9.30
2023-05-09T05:12:43.981Z,8.80
2023-05-09T05:15:11.144Z,9.73
2023-05-09T05:17:38.928Z,10.30
2023-05-09T05:20:07.563Z,9.55
2023-05-09T05:22:34.341Z,9.57
2023-05-09T05:25:03.448Z,9.65
2023-05-09T05:27:30.114Z,10.05
2023-05-09T05:30:18.380Z,10.05
2023-05-09T05:32:45.037Z,10.00
2023-05-09T05:35:12.185Z,11.55
2023-05-09T05:37:40.423Z,10.25
2023-05-09T05:40:08.149Z,10.88
2023-05-09T05:42:34.956Z,10.18
2023-05-09T05:45:04.454Z,10.75
2023-05-09T05:47:35.653Z,10.98
2023-05-09T05:50:11.685Z,11.32
2023-05-09T05:52:39.379Z,10.37
2023-05-09T05:55:12.492Z,10.88
2023-05-09T05:57:39.485Z,11.32
2023-05-09T06:00:14.739Z,11.32
2023-05-09T06:02:45.368Z,11.65
2023-05-09T06:05:12.624Z,10.48
2023-05-09T06:07:41.961Z,11.13
2023-05-09T06:10:09.018Z,9.88
2023-05-09T06:12:36.702Z,11.57
2023-05-09T06:15:05.864Z,11.00
2023-05-09T06:17:33.765Z,11.48
2023-05-09T06:20:00.599Z,10.85
2023-05-09T06:22:27.389Z,11.70
2023-05-09T06:24:55.904Z,11.50
2023-05-09T06:27:22.760Z,12.88
2023-05-09T06:29:52.745Z,12.40
2023-05-09T06:32:19.644Z,11.75
2023-05-09T06:34:46.526Z,12.23
2023-05-09T06:37:15.321Z,12.27
2023-05-09T06:39:42.260Z,14.75
2023-05-09T06:42:09.622Z,13.93
2023-05-09T06:44:55.030Z,14.07
2023-05-09T06:47:21.727Z,13.90
2023-05-09T06:50:07.431Z,14.23
2023-05-09T06:52:34.077Z,14.57
2023-05-09T06:55:19.538Z,14.50
2023-05-09T06:57:46.238Z,15.50
2023-05-09T07:00:13.835Z,14.95
2023-05-09T07:02:43.251Z,15.65
2023-05-09T07:05:10.791Z,15.30
2023-05-09T07:07:38.901Z,15.43
2023-05-09T07:10:11.843Z,15.88
2023-05-09T07:12:40.901Z,16.17
2023-05-09T07:15:11.059Z,15.60
2023-05-09T07:17:37.938Z,15.18
2023-05-09T07:20:05.738Z,16.13
2023-05-09T07:22:34.126Z,15.30
2023-05-09T07:25:02.377Z,15.70
2023-05-09T07:27:31.237Z,14.88
2023-05-09T07:29:57.929Z,14.48
2023-05-09T07:32:28.876Z,15.45
2023-05-09T07:34:57.883Z,16.15
2023-05-09T07:37:24.535Z,14.60
2023-05-09T07:39:52.508Z,15.73
2023-05-09T07:42:19.148Z,15.25
2023-05-09T07:44:46.464Z,15.35
2023-05-09T07:47:13.048Z,15.43
2023-05-09T07:49:40.726Z,14.20
2023-05-09T07:52:07.413Z,14.50
2023-05-09T07:54:34.126Z,14.07
2023-05-09T07:57:00.802Z,15.05
2023-05-09T07:59:27.854Z,14.52
2023-05-09T08:01:54.607Z,14.80
2023-05-09T08:04:24.895Z,14.23
2023-05-09T08:06:51.625Z,14.18
2023-05-09T08:09:18.767Z,15.18
2023-05-09T08:11:46.002Z,14.57
2023-05-09T08:14:15.622Z,15.30
2023-05-09T08:16:45.163Z,15.90
2023-05-09T08:19:11.735Z,13.77
2023-05-09T08:21:57.069Z,14.93
2023-05-09T08:24:24.127Z,13.88
2023-05-09T08:26:50.820Z,14.07
2023-05-09T08:29:18.358Z,14.13
2023-05-09T08:31:45.188Z,16.00
2023-05-09T08:34:14.005Z,15.27
2023-05-09T08:36:45.581Z,16.17
2023-05-09T08:39:12.311Z,15.45
2023-05-09T08:41:39.898Z,16.13
2023-05-09T08:44:06.984Z,16.70
2023-05-09T08:46:42.393Z,16.25
2023-05-09T08:49:09.983Z,16.73
2023-05-09T08:51:43.406Z,16.42
2023-05-09T08:54:11.387Z,16.63
2023-05-09T08:56:38.279Z,17.25
2023-05-09T08:59:05.940Z,18.17
2023-05-09T09:01:36.846Z,17.17
2023-05-09T09:04:09.095Z,18.42
2023-05-09T09:06:39.559Z,18.30
2023-05-09T09:09:25.497Z,19.88
2023-05-09T09:11:53.459Z,18.47
2023-05-09T09:14:27.698Z,19.30
2023-05-09T09:16:56.159Z,17.90
2023-05-09T09:19:30.704Z,18.00
2023-05-09T09:21:59.769Z,18.70
2023-05-09T09:24:26.454Z,20.98
2023-05-09T09:26:53.240Z,20.60
2023-05-09T09:29:21.072Z,21.80
2023-05-09T09:31:55.165Z,21.98
2023-05-09T09:34:23.544Z,23.55
2023-05-09T09:36:50.649Z,24.45
2023-05-09T09:39:17.555Z,25.20
2023-05-09T09:41:46.968Z,26.73
2023-05-09T09:44:16.127Z,26.08
2023-05-09T09:46:51.383Z,27.08
2023-05-09T09:49:20.236Z,27.92
2023-05-09T09:51:57.953Z,28.33
2023-05-09T09:54:29.297Z,31.20
2023-05-09T09:56:57.246Z,30.98
2023-05-09T09:59:25.918Z,31.83
2023-05-09T10:02:09.335Z,30.05
2023-05-09T10:04:39.453Z,32.25
2023-05-09T10:07:14.876Z,33.42
2023-05-09T10:09:49.347Z,32.38
2023-05-09T10:12:19.800Z,34.00
2023-05-09T10:14:48.313Z,33.03
2023-05-09T10:17:16.251Z,33.13
2023-05-09T10:19:47.662Z,34.70
2023-05-09T10:22:17.981Z,31.98
2023-05-09T10:24:57.649Z,35.17
2023-05-09T10:27:27.646Z,34.30
2023-05-09T10:30:08.711Z,33.78
2023-05-09T10:33:02.921Z,33.85
2023-05-09T10:35:40.753Z,35.70
2023-05-09T10:38:08.007Z,35.10
2023-05-09T10:40:35.348Z,32.53
2023-05-09T10:43:02.100Z,32.10
2023-05-09T10:45:29.095Z,31.90
2023-05-09T10:47:58.347Z,31.10
2023-05-09T10:50:25.962Z,32.75
2023-05-09T10:53:17.954Z,31.00
2023-05-09T10:55:50.763Z,29.35
2023-05-09T10:58:22.874Z,32.30
2023-05-09T11:00:50.809Z,33.72
2023-05-09T11:03:19.686Z,31.77
2023-05-09T11:05:48.176Z,30.88
2023-05-09T11:08:30.721Z,31.27
2023-05-09T11:11:00.753Z,31.33
2023-05-09T11:13:31.683Z,31.75
2023-05-09T11:16:17.038Z,30.92
2023-05-09T11:18:52.525Z,30.83
2023-05-09T11:21:20.532Z,32.15
2023-05-09T11:23:48.180Z,29.83
2023-05-09T11:26:15.993Z,28.70
2023-05-09T11:28:53.751Z,26.08
2023-05-09T11:31:27.510Z,24.25
2023-05-09T11:34:07.186Z,23.77
2023-05-09T11:36:34.081Z,24.00
2023-05-09T11:39:08.556Z,21.63
2023-05-09T11:41:46.584Z,21.60
2023-05-09T11:44:21.484Z,18.60
2023-05-09T11:46:49.462Z,16.92
2023-05-09T11:49:17.761Z,14.65
2023-05-09T11:51:44.437Z,13.88
2023-05-09T11:54:13.674Z,13.80
2023-05-09T11:56:42.080Z,12.05
2023-05-09T11:59:13.219Z,11.38
2023-05-09T12:01:39.952Z,11.52
2023-05-09T12:04:08.970Z,10.35
2023-05-09T12:06:37.798Z,8.50
2023-05-09T12:09:05.281Z,8.32
2023-05-09T12:11:32.558Z,7.43
2023-05-09T12:13:59.385Z,6.47
2023-05-09T12:16:26.131Z,7.15
2023-05-09T12:18:53.054Z,6.07
2023-05-09T12:21:22.056Z,6.18
2023-05-09T12:23:51.236Z,5.93
2023-05-09T12:26:22.710Z,5.07
2023-05-09T12:28:50.186Z,5.82
2023-05-09T12:31:17.574Z,5.40
2023-05-09T12:33:44.748Z,5.10
2023-05-09T12:36:13.616Z,5.63
2023-05-09T12:38:40.298Z,5.07
2023-05-09T12:41:31.052Z,5.78
2023-05-09T12:44:02.027Z,6.10
2023-05-09T12:46:28.782Z,7.22
2023-05-09T12:48:55.738Z,6.82
2023-05-09T12:51:23.042Z,8.38
2023-05-09T12:53:50.088Z,8.38
2023-05-09T12:56:19.326Z,8.45
2023-05-09T12:58:51.309Z,8.75
2023-05-09T13:01:23.091Z,8.75
2023-05-09T13:04:00.207Z,9.23
2023-05-09T13:06:27.269Z,8.32
2023-05-09T13:09:01.665Z,8.88
2023-05-09T13:11:54.242Z,9.00
2023-05-09T13:14:22.628Z,8.40
2023-05-09T13:16:49.261Z,8.50
2023-05-09T13:19:39.448Z,8.98
2023-05-09T13:22:07.214Z,8.77
2023-05-09T13:24:33.886Z,9.40
2023-05-09T13:27:00.681Z,9.48
2023-05-09T13:29:27.365Z,8.77
2023-05-09T13:31:54.715Z,8.85
2023-05-09T13:34:23.169Z,8.52
2023-05-09T13:37:09.161Z,8.38
2023-05-09T13:39:36.545Z,8.52
2023-05-09T13:42:04.980Z,8.52
2023-05-09T13:44:31.704Z,8.20
2023-05-09T13:47:00.235Z,8.82
2023-05-09T13:49:44.081Z,8.60
2023-05-09T13:52:12.767Z,8.05
2023-05-09T13:54:41.512Z,8.05
2023-05-09T13:57:08.198Z,8.57
2023-05-09T13:59:35.448Z,9.30
2023-05-09T14:02:02.585Z,8.45
2023-05-09T14:04:35.069Z,8.57
2023-05-09T14:07:01.974Z,9.18
2023-05-09T14:09:29.670Z,9.13
2023-05-09T14:11:57.161Z,8.60
2023-05-09T14:14:43.435Z,8.50
2023-05-09T14:17:10.321Z,8.88
2023-05-09T14:19:38.864Z,8.23
2023-05-09T14:22:05.497Z,8.38
2023-05-09T14:24:33.474Z,8.88
2023-05-09T14:27:00.312Z,8.57
2023-05-09T14:29:27.406Z,7.78
2023-05-09T14:31:56.163Z,8.10
2023-05-09T14:34:23.087Z,7.15
2023-05-09T14:36:50.301Z,7.72
2023-05-09T14:39:17.143Z,7.65
2023-05-09T14:41:47.848Z,7.63
2023-05-09T14:44:14.588Z,7.80
2023-05-09T14:46:48.435Z,8.05
2023-05-09T14:49:15.176Z,6.45
2023-05-09T14:51:50.717Z,6.00
2023-05-09T14:54:17.339Z,6.43
2023-05-09T14:56:44.672Z,6.72
2023-05-09T14:59:11.846Z,6.18
2023-05-09T15:01:39.764Z,6.25
2023-05-09T15:04:06.660Z,6.55
2023-05-09T15:06:33.654Z,6.15
2023-05-09T15:09:01.927Z,5.53
2023-05-09T15:11:28.822Z,5.90
2023-05-09T15:14:18.859Z,5.82
2023-05-09T15:16:45.760Z,5.43
2023-05-09T15:19:12.748Z,5.80
2023-05-09T15:21:58.856Z,5.35
2023-05-09T15:24:30.528Z,5.30
2023-05-09T15:26:57.257Z,4.80
2023-05-09T15:29:26.046Z,4.32
2023-05-09T15:31:55.745Z,4.30
2023-05-09T15:34:24.015Z,4.43
2023-05-09T15:36:50.674Z,4.53
2023-05-09T15:39:18.070Z,3.90
2023-05-09T15:41:45.010Z,4.38
2023-05-09T15:44:14.485Z,4.05
2023-05-09T15:46:41.267Z,3.88
2023-05-09T15:49:08.173Z,4.32
2023-05-09T15:51:35.151Z,4.32
2023-05-09T15:54:06.962Z,3.90
2023-05-09T15:56:33.555Z,3.75
2023-05-09T15:59:00.458Z,3.40
2023-05-09T16:01:27.277Z,3.40
2023-05-09T16:03:54.025Z,3.03
2023-05-09T16:06:27.013Z,2.90
2023-05-09T16:08:54.428Z,2.97
2023-05-09T16:11:21.965Z,3.05
2023-05-09T16:14:11.375Z,3.13
2023-05-09T16:16:39.592Z,2.75
2023-05-09T16:19:06.932Z,2.80
2023-05-09T16:21:52.548Z,2.95
2023-05-09T16:24:19.227Z,2.97
2023-05-09T16:26:48.042Z,2.60
2023-05-09T16:29:14.686Z,2.60
2023-05-09T16:31:41.388Z,2.85
2023-05-09T16:34:09.161Z,2.42
2023-05-09T16:36:37.572Z,2.60
2023-05-09T16:39:04.234Z,2.42
2023-05-09T16:41:32.775Z,2.33
2023-05-09T16:44:00.246Z,2.30
2023-05-09T16:46:27.205Z,2.60
2023-05-09T16:48:55.701Z,2.35
2023-05-09T16:51:28.327Z,2.35
2023-05-09T16:53:55.358Z,2.05
2023-05-09T16:56:22.705Z,2.25
2023-05-09T16:58:49.977Z,2.30
2023-05-09T17:01:16.753Z,2.20
2023-05-09T17:03:43.512Z,2.33
2023-05-09T17:06:10.432Z,2.42
2023-05-09T17:08:37.158Z,2.10
2023-05-09T17:11:05.496Z,2.05
2023-05-09T17:13:32.237Z,1.80
2023-05-09T17:15:59.040Z,2.03
2023-05-09T17:18:36.570Z,1.90
2023-05-09T17:21:04.858Z,1.80
2023-05-09T17:23:31.932Z,1.55
2023-05-09T17:26:01.099Z,1.80
2023-05-09T17:31:18.502Z,1.80
2023-05-09T17:33:47.308Z,2.35
2023-05-09T17:36:14.077Z,2.35
2023-05-09T17:38:41.026Z,1.52
2023-05-09T17:41:08.217Z,1.13
2023-05-09T17:43:35.035Z,1.40
2023-05-09T17:46:01.809Z,1.33
2023-05-09T17:48:30.504Z,1.27
2023-05-09T17:50:59.650Z,1.35
2023-05-09T17:53:26.625Z,1.20
2023-05-09T17:55:53.285Z,1.25
2023-05-09T17:58:20.889Z,1.23
2023-05-09T18:00:47.604Z,1.17
2023-05-09T18:03:33.014Z,1.55
2023-05-09T18:06:02.892Z,1.20
2023-05-09T18:08:29.982Z,1.30
2023-05-09T18:10:57.515Z,1.40
2023-05-09T18:13:24.450Z,1.48
2023-05-09T18:15:51.512Z,1.50
2023-05-09T18:18:22.443Z,1.25
2023-05-09T18:20:49.269Z,1.40
2023-05-09T18:23:16.114Z,1.50
2023-05-09T18:25:42.779Z,2.00
2023-05-09T18:28:13.962Z,1.67
2023-05-09T18:30:41.357Z,1.90
2023-05-09T18:33:08.216Z,1.90
2023-05-09T18:35:35.202Z,1.70
2023-05-09T18:38:02.143Z,1.45
2023-05-09T18:40:28.819Z,1.90
2023-05-09T18:42:55.453Z,1.75
2023-05-09T18:45:22.458Z,1.80
2023-05-09T18:47:49.286Z,1.92
2023-05-09T18:50:16.473Z,1.90
2023-05-09T18:53:03.254Z,2.22
2023-05-09T18:55:29.872Z,2.40
2023-05-09T18:57:56.680Z,1.95
2023-05-09T19:00:23.816Z,2.08
2023-05-09T19:02:50.508Z,2.10
2023-05-09T19:05:17.317Z,2.30
2023-05-09T19:07:43.921Z,2.08
2023-05-09T19:10:11.043Z,2.25
2023-05-09T19:12:37.757Z,2.17
2023-05-09T19:15:07.566Z,3.28
2023-05-09T19:17:34.703Z,2.22
2023-05-09T19:20:02.657Z,2.15
2023-05-09T19:22:29.655Z,2.10
2023-05-09T19:25:01.326Z,2.45
2023-05-09T19:27:32.859Z,2.20
2023-05-09T19:30:00.021Z,2.20
2023-05-09T19:32:27.350Z,2.13
2023-05-09T19:34:54.114Z,2.05
2023-05-09T19:37:20.758Z,2.35
2023-05-09T19:39:47.611Z,2.42
2023-05-09T19:42:15.054Z,2.20
2023-05-09T19:44:41.901Z,2.50
2023-05-09T19:47:14.265Z,2.75
2023-05-09T19:49:42.869Z,2.28
2023-05-09T19:52:10.758Z,2.70
2023-05-09T19:54:37.535Z,2.30
2023-05-09T19:57:06.582Z,2.70
2023-05-09T19:59:33.380Z,2.67
2023-05-09T20:02:05.929Z,2.45
2023-05-09T20:04:35.213Z,2.47
2023-05-09T20:07:05.166Z,2.50
2023-05-09T20:09:32.996Z,2.92
2023-05-09T20:12:02.129Z,2.80
2023-05-09T20:14:29.789Z,2.63
2023-05-09T20:16:57.117Z,2.35
2023-05-09T20:19:23.989Z,2.90
2023-05-09T20:22:09.168Z,2.72
2023-05-09T20:24:35.801Z,2.50
2023-05-09T20:27:03.183Z,2.60
2023-05-09T20:29:29.928Z,2.67
2023-05-09T20:31:56.617Z,2.90
2023-05-09T20:34:24.650Z,2.80
2023-05-09T20:36:53.609Z,3.92
2023-05-09T20:39:21.243Z,2.63
2023-05-09T20:41:49.482Z,2.88
2023-05-09T20:44:17.719Z,2.78
2023-05-09T20:46:46.149Z,2.63
2023-05-09T20:49:12.934Z,3.08
2023-05-09T20:51:39.595Z,2.92
2023-05-09T20:54:08.373Z,3.20
2023-05-09T20:56:35.689Z,3.15
2023-05-09T20:59:04.445Z,2.70
2023-05-09T21:01:35.504Z,3.03
2023-05-09T21:04:08.337Z,3.28
2023-05-09T21:06:36.558Z,2.97
2023-05-09T21:09:06.349Z,2.95
2023-05-09T21:11:33.101Z,3.00
2023-05-09T21:14:00.114Z,3.15
2023-05-09T21:16:33.967Z,3.28
2023-05-09T21:19:04.940Z,3.97
2023-05-09T21:21:33.645Z,3.28
2023-05-09T21:24:03.348Z,3.08
2023-05-09T21:26:49.008Z,5.35
2023-05-09T21:29:15.679Z,3.15
2023-05-09T21:31:42.410Z,3.40
2023-05-09T21:34:11.593Z,3.50
2023-05-09T21:36:40.014Z,3.47
2023-05-09T21:42:16.352Z,3.10
2023-05-09T21:44:43.055Z,3.65
2023-05-09T21:47:10.277Z,3.60
2023-05-09T21:49:37.725Z,3.70
2023-05-09T21:52:04.685Z,3.63
2023-05-09T21:54:33.751Z,3.58
2023-05-09T21:57:01.072Z,3.30
2023-05-09T21:59:46.345Z,3.70
2023-05-09T22:02:13.057Z,3.78
2023-05-09T22:04:40.312Z,4.45
2023-05-09T22:07:06.985Z,3.80
2023-05-09T22:09:33.631Z,4.10
2023-05-09T22:12:00.211Z,3.78
2023-05-09T22:14:27.093Z,3.92
2023-05-09T22:16:55.303Z,3.95
2023-05-09T22:19:21.974Z,4.00
2023-05-09T22:21:50.372Z,4.13
2023-05-09T22:24:17.020Z,3.85
2023-05-09T22:27:02.489Z,4.15
2023-05-09T22:29:34.491Z,4.13
2023-05-09T22:32:02.281Z,4.03
2023-05-09T22:34:28.971Z,3.90
2023-05-09T22:36:55.517Z,4.28
2023-05-09T22:39:40.853Z,4.35
2023-05-09T22:42:11.029Z,3.80
2023-05-09T22:44:39.564Z,4.18
2023-05-09T22:47:09.808Z,4.25
2023-05-09T22:49:36.614Z,4.10
2023-05-09T22:52:05.018Z,4.53
2023-05-09T22:54:31.753Z,4.70
2023-05-09T22:56:58.403Z,4.43
2023-05-09T22:59:26.694Z,4.65
2023-05-09T23:01:53.621Z,4.32
2023-05-09T23:04:20.721Z,4.78
2023-05-09T23:06:47.483Z,4.47
2023-05-09T23:09:14.118Z,4.57
2023-05-09T23:11:59.734Z,4.53
2023-05-09T23:14:26.903Z,4.28
2023-05-09T23:16:56.695Z,4.53
2023-05-09T23:19:23.506Z,4.63
2023-05-09T23:21:51.489Z,3.92
2023-05-09T23:24:18.165Z,4.47
2023-05-09T23:26:45.228Z,4.57
2023-05-09T23:29:12.052Z,4.20
2023-05-09T23:31:42.940Z,4.68
2023-05-09T23:34:09.615Z,4.75
2023-05-09T23:36:36.252Z,5.18
2023-05-09T23:39:03.520Z,5.25
2023-05-09T23:41:30.192Z,5.40
2023-05-09T23:44:15.615Z,5.88
2023-05-09T23:46:42.425Z,6.25
2023-05-09T23:49:14.979Z,7.13
2023-05-09T23:51:41.752Z,6.30
2023-05-09T23:54:08.668Z,5.72
2023-05-09T23:56:36.084Z,5.82
2023-05-09T23:59:02.749Z,4.15
